Olindina, Brazil
Current Conditions -  °F | °C
As of 8:00 AM on Friday 24 Oct 2014 (Local Time) from SBAR Reporting Station
Scattered Clouds Scattered Clouds  
Wind Chill: 81°   Ceiling: Unl
Heat Index: 83°   Visibility: 6mi
Dew Point: 66°   Wind: 14mph
Humidity: 61%   Direction: 140°SE
Pressure: 30"   Gusts: NA
Location:  11.36°S, 38.34°W
Report Text: SBAR 241100Z 14012KT 9999 SCT017 27/19 Q1016
Loading
Personal Weather Stations






























Interactive Weather Map
Tropical Storm Tracking
New forecast layout! Learn more

10-Day Weather Forecast

Advertisements
Track Severe Weather on mobile